createdAt,value
2018-12-03T00:01:41.639Z,11.90
2018-12-03T00:04:17.140Z,11.80
2018-12-03T00:06:50.766Z,11.70
2018-12-03T00:09:24.764Z,11.80
2018-12-03T00:11:54.361Z,11.80
2018-12-03T00:14:25.000Z,11.80
2018-12-03T00:16:56.499Z,11.80
2018-12-03T00:19:26.923Z,11.80
2018-12-03T00:21:56.429Z,11.70
2018-12-03T00:24:26.567Z,11.70
2018-12-03T00:26:56.261Z,11.70
2018-12-03T00:29:26.182Z,11.60
2018-12-03T00:31:56.067Z,11.60
2018-12-03T00:34:27.196Z,11.50
2018-12-03T00:36:57.771Z,11.50
2018-12-03T00:39:30.374Z,11.40
2018-12-03T00:42:00.314Z,11.40
2018-12-03T00:44:29.532Z,11.40
2018-12-03T00:47:00.158Z,11.30
2018-12-03T00:49:29.513Z,11.30
2018-12-03T00:52:00.723Z,11.30
2018-12-03T00:54:33.693Z,11.20
2018-12-03T00:57:02.923Z,11.20
2018-12-03T00:59:32.145Z,11.20
2018-12-03T01:02:02.101Z,11.20
2018-12-03T01:04:31.358Z,11.20
2018-12-03T01:07:02.332Z,11.20
2018-12-03T01:09:31.798Z,11.10
2018-12-03T01:12:01.523Z,11.10
2018-12-03T01:14:30.769Z,11.20
2018-12-03T01:17:01.162Z,11.30
2018-12-03T01:19:30.533Z,11.30
2018-12-03T01:21:59.818Z,11.30
2018-12-03T01:24:29.074Z,11.40
2018-12-03T01:26:58.237Z,11.40
2018-12-03T01:29:27.439Z,11.40
2018-12-03T01:31:56.944Z,11.40
2018-12-03T01:34:27.168Z,11.40
2018-12-03T01:36:56.401Z,11.40
2018-12-03T01:39:26.082Z,11.50
2018-12-03T01:41:55.425Z,11.40
2018-12-03T01:44:24.642Z,11.40
2018-12-03T01:46:54.061Z,11.40
2018-12-03T01:49:23.301Z,11.40
2018-12-03T01:51:53.633Z,11.40
2018-12-03T01:54:24.472Z,11.40
2018-12-03T01:56:54.696Z,11.50
2018-12-03T01:59:23.998Z,11.50
2018-12-03T02:01:59.375Z,11.40
2018-12-03T02:04:29.890Z,11.30
2018-12-03T02:06:59.139Z,11.30
2018-12-03T02:09:28.351Z,11.30
2018-12-03T02:11:59.413Z,11.20
2018-12-03T02:14:29.139Z,11.20
2018-12-03T02:16:59.878Z,11.10
2018-12-03T02:19:29.418Z,11.10
2018-12-03T02:22:04.489Z,11.10
2018-12-03T02:24:34.071Z,11.10
2018-12-03T02:27:03.651Z,11.00
2018-12-03T02:29:33.038Z,11.00
2018-12-03T02:32:17.388Z,11.00
2018-12-03T02:34:56.406Z,11.00
2018-12-03T02:37:26.519Z,11.10
2018-12-03T02:39:55.849Z,11.10
2018-12-03T02:42:30.779Z,11.10
2018-12-03T02:45:00.839Z,11.10
2018-12-03T02:47:30.552Z,11.10
2018-12-03T02:50:00.984Z,11.10
2018-12-03T02:52:30.399Z,11.10
2018-12-03T02:55:01.243Z,11.10
2018-12-03T02:57:31.519Z,11.20
2018-12-03T03:00:01.286Z,11.20
2018-12-03T03:02:30.590Z,11.20
2018-12-03T03:05:01.576Z,11.30
2018-12-03T03:07:30.766Z,11.30
2018-12-03T03:10:00.401Z,11.30
2018-12-03T03:12:29.632Z,11.30
2018-12-03T03:14:58.845Z,11.30
2018-12-03T03:17:28.423Z,11.30
2018-12-03T03:19:57.648Z,11.30
2018-12-03T03:22:30.144Z,11.30
2018-12-03T03:25:00.141Z,11.30
2018-12-03T03:27:29.525Z,11.30
2018-12-03T03:29:58.706Z,11.30
2018-12-03T03:32:31.847Z,11.20
2018-12-03T03:35:06.605Z,11.30
2018-12-03T03:37:35.933Z,11.30
2018-12-03T03:40:09.616Z,11.30
2018-12-03T03:42:39.060Z,11.30
2018-12-03T03:45:15.608Z,11.30
2018-12-03T03:47:45.513Z,11.30
2018-12-03T03:50:14.701Z,11.40
2018-12-03T03:52:45.245Z,11.40
2018-12-03T03:55:15.779Z,11.40
2018-12-03T03:57:44.984Z,11.40
2018-12-03T04:00:15.553Z,11.40
2018-12-03T04:02:46.623Z,11.40
2018-12-03T04:05:16.676Z,11.40
2018-12-03T04:07:46.516Z,11.40
2018-12-03T04:10:17.030Z,11.40
2018-12-03T04:12:47.516Z,11.40
2018-12-03T04:15:17.185Z,11.40
2018-12-03T04:17:46.445Z,11.50
2018-12-03T04:20:17.235Z,11.40
2018-12-03T04:22:49.685Z,11.50
2018-12-03T04:25:18.878Z,11.40
2018-12-03T04:27:49.137Z,11.40
2018-12-03T04:30:19.823Z,11.40
2018-12-03T04:32:49.198Z,11.40
2018-12-03T04:35:19.124Z,11.30
2018-12-03T04:37:51.316Z,11.30
2018-12-03T04:40:20.575Z,11.30
2018-12-03T04:42:49.992Z,11.30
2018-12-03T04:45:19.444Z,11.30
2018-12-03T04:47:50.864Z,11.30
2018-12-03T04:50:22.384Z,11.30
2018-12-03T04:52:51.622Z,11.20
2018-12-03T04:55:22.250Z,11.30
2018-12-03T04:57:51.448Z,11.20
2018-12-03T05:00:21.601Z,11.20
2018-12-03T05:02:52.539Z,11.20
2018-12-03T05:05:22.513Z,11.30
2018-12-03T05:07:51.851Z,11.20
2018-12-03T05:10:22.382Z,11.20
2018-12-03T05:12:52.707Z,11.20
2018-12-03T05:15:22.057Z,11.10
2018-12-03T05:17:52.345Z,11.20
2018-12-03T05:20:23.745Z,11.20
2018-12-03T05:22:53.079Z,11.20
2018-12-03T05:25:22.954Z,11.30
2018-12-03T05:27:52.281Z,11.20
2018-12-03T05:30:21.533Z,11.30
2018-12-03T05:32:50.760Z,11.20
2018-12-03T05:35:22.778Z,11.30
2018-12-03T05:37:52.041Z,11.30
2018-12-03T05:40:23.206Z,11.30
2018-12-03T05:42:53.147Z,11.40
2018-12-03T05:45:22.522Z,11.50
2018-12-03T05:47:52.527Z,11.50
2018-12-03T05:50:21.784Z,11.50
2018-12-03T05:52:51.753Z,11.50
2018-12-03T05:55:20.988Z,11.50
2018-12-03T05:57:50.193Z,11.50
2018-12-03T06:00:22.018Z,11.50
2018-12-03T06:02:51.914Z,11.60
2018-12-03T06:05:22.329Z,11.60
2018-12-03T06:07:51.618Z,11.60
2018-12-03T06:10:21.938Z,11.60
2018-12-03T06:12:51.230Z,11.50
2018-12-03T06:15:21.636Z,11.50
2018-12-03T06:17:52.495Z,11.50
2018-12-03T06:20:22.749Z,11.40
2018-12-03T06:22:53.955Z,11.40
2018-12-03T06:25:27.685Z,11.50
2018-12-03T06:28:00.021Z,11.40
2018-12-03T06:30:36.248Z,11.40
2018-12-03T06:33:05.773Z,11.40
2018-12-03T06:35:35.605Z,11.40
2018-12-03T06:38:04.898Z,11.40
2018-12-03T06:40:34.189Z,11.40
2018-12-03T06:43:03.763Z,11.40
2018-12-03T06:45:33.044Z,11.40
2018-12-03T06:48:05.072Z,11.30
2018-12-03T06:50:35.609Z,11.30
2018-12-03T06:53:04.897Z,11.20
2018-12-03T06:55:34.215Z,11.20
2018-12-03T06:58:03.534Z,11.20
2018-12-03T07:00:32.834Z,11.20
2018-12-03T07:03:02.128Z,11.20
2018-12-03T07:05:32.222Z,11.20
2018-12-03T07:08:03.167Z,11.20
2018-12-03T07:10:32.396Z,11.30
2018-12-03T07:13:03.474Z,11.30
2018-12-03T07:15:34.767Z,11.30
2018-12-03T07:18:04.170Z,11.40
2018-12-03T07:20:33.453Z,11.50
2018-12-03T07:23:02.675Z,11.50
2018-12-03T07:25:31.877Z,11.50
2018-12-03T07:28:01.671Z,11.50
2018-12-03T07:30:31.295Z,11.50
2018-12-03T07:33:00.647Z,11.60
2018-12-03T07:35:30.663Z,11.60
2018-12-03T07:37:59.907Z,11.60
2018-12-03T07:40:31.799Z,11.60
2018-12-03T07:43:01.054Z,11.60
2018-12-03T07:45:30.293Z,11.60
2018-12-03T07:48:02.217Z,11.50
2018-12-03T07:50:31.741Z,11.50
2018-12-03T07:53:01.318Z,11.50
2018-12-03T07:55:30.669Z,11.50
2018-12-03T07:58:10.608Z,11.60
2018-12-03T08:00:45.024Z,11.60
2018-12-03T08:03:14.302Z,11.60
2018-12-03T08:05:43.574Z,11.60
2018-12-03T08:08:12.829Z,11.70
2018-12-03T08:10:44.703Z,11.80
2018-12-03T08:13:15.212Z,11.80
2018-12-03T08:15:44.466Z,11.80
2018-12-03T08:18:15.653Z,11.80
2018-12-03T08:20:51.781Z,11.80
2018-12-03T08:23:27.323Z,11.80
2018-12-03T08:25:56.712Z,11.90
2018-12-03T08:28:26.003Z,12.00
2018-12-03T08:30:55.430Z,12.10
2018-12-03T08:33:24.993Z,12.20
2018-12-03T08:35:54.990Z,12.30
2018-12-03T08:38:24.763Z,12.50
2018-12-03T08:40:57.197Z,12.50
2018-12-03T08:43:27.225Z,12.60
2018-12-03T08:45:58.981Z,12.60
2018-12-03T08:48:33.146Z,12.70
2018-12-03T08:51:02.937Z,12.70
2018-12-03T08:53:32.271Z,12.70
2018-12-03T08:56:01.515Z,12.80
2018-12-03T08:58:30.771Z,12.80
2018-12-03T09:01:00.471Z,12.90
2018-12-03T09:03:30.849Z,13.00
2018-12-03T09:06:05.769Z,13.00
2018-12-03T09:08:35.562Z,13.10
2018-12-03T09:11:06.092Z,13.30
2018-12-03T09:13:35.357Z,13.30
2018-12-03T09:16:04.916Z,13.30
2018-12-03T09:18:38.213Z,13.50
2018-12-03T09:21:14.775Z,13.70
2018-12-03T09:23:45.288Z,13.80
2018-12-03T09:26:15.288Z,14.00
2018-12-03T09:28:44.683Z,13.80
2018-12-03T09:31:20.707Z,13.80
2018-12-03T09:33:54.270Z,13.70
2018-12-03T09:36:24.526Z,13.60
2018-12-03T09:39:10.877Z,13.50
2018-12-03T09:41:40.417Z,13.50
2018-12-03T09:44:10.638Z,13.50
2018-12-03T09:46:40.337Z,13.50
2018-12-03T09:49:09.593Z,13.70
2018-12-03T09:51:39.327Z,13.80
2018-12-03T09:54:10.428Z,14.00
2018-12-03T09:56:45.974Z,14.10
2018-12-03T09:59:16.454Z,14.20
2018-12-03T10:01:48.227Z,14.20
2018-12-03T10:04:23.858Z,14.20
2018-12-03T10:06:56.955Z,14.30
2018-12-03T10:09:26.213Z,14.40
2018-12-03T10:11:58.793Z,14.20
2018-12-03T10:14:28.584Z,14.20
2018-12-03T10:17:00.390Z,14.20
2018-12-03T10:19:31.882Z,14.10
2018-12-03T10:22:04.045Z,13.80
2018-12-03T10:24:33.243Z,13.90
2018-12-03T10:27:13.005Z,14.10
2018-12-03T10:29:42.599Z,14.00
2018-12-03T10:32:18.376Z,14.10
2018-12-03T10:34:48.125Z,14.30
2018-12-03T10:38:49.439Z,14.10
2018-12-03T10:41:27.238Z,14.30
2018-12-03T10:43:59.703Z,14.30
2018-12-03T10:46:29.927Z,14.30
2018-12-03T10:49:06.210Z,14.40
2018-12-03T10:51:35.582Z,14.50
2018-12-03T10:54:05.416Z,14.60
2018-12-03T10:56:35.399Z,14.70
2018-12-03T10:59:05.476Z,14.70
2018-12-03T11:01:40.803Z,14.70
2018-12-03T11:04:16.084Z,14.80
2018-12-03T11:06:45.770Z,14.80
2018-12-03T11:09:15.067Z,14.80
2018-12-03T11:11:48.686Z,14.70
2018-12-03T11:14:18.022Z,14.80
2018-12-03T11:16:48.493Z,14.70
2018-12-03T11:19:18.037Z,14.60
2018-12-03T11:21:49.515Z,14.60
2018-12-03T11:24:23.677Z,14.50
2018-12-03T11:26:56.005Z,14.50
2018-12-03T11:29:25.980Z,14.70
2018-12-03T11:31:55.973Z,14.80
2018-12-03T11:34:26.578Z,14.70
2018-12-03T11:36:59.571Z,14.70
2018-12-03T11:39:39.208Z,14.70
2018-12-03T11:42:08.751Z,14.80
2018-12-03T11:44:38.045Z,14.70
2018-12-03T11:47:08.385Z,14.70
2018-12-03T11:49:38.147Z,14.60
2018-12-03T11:52:08.734Z,14.60
2018-12-03T11:54:38.183Z,14.70
2018-12-03T11:57:08.225Z,14.60
2018-12-03T11:59:37.642Z,14.60
2018-12-03T12:02:08.945Z,14.50
2018-12-03T12:04:40.238Z,14.50
2018-12-03T12:07:12.773Z,14.60
2018-12-03T12:09:44.374Z,14.70
2018-12-03T12:12:13.946Z,14.60
2018-12-03T12:14:43.387Z,14.80
2018-12-03T12:17:14.283Z,14.80
2018-12-03T12:19:43.635Z,14.60
2018-12-03T12:22:13.792Z,14.70
2018-12-03T12:24:47.381Z,14.80
2018-12-03T12:27:17.860Z,14.70
2018-12-03T12:29:47.810Z,14.90
2018-12-03T12:32:23.284Z,15.00
2018-12-03T12:34:57.595Z,15.00
2018-12-03T12:37:30.082Z,15.00
2018-12-03T12:40:00.465Z,15.10
2018-12-03T12:42:36.936Z,14.90
2018-12-03T12:45:16.071Z,15.00
2018-12-03T12:47:45.491Z,15.00
2018-12-03T12:50:17.235Z,15.00
2018-12-03T12:52:48.669Z,14.80
2018-12-03T12:55:19.914Z,14.70
2018-12-03T12:57:50.186Z,14.70
2018-12-03T13:00:20.291Z,14.70
2018-12-03T13:02:52.605Z,14.70
2018-12-03T13:05:22.620Z,14.60
2018-12-03T13:07:51.873Z,14.70
2018-12-03T13:10:22.800Z,14.80
2018-12-03T13:12:53.514Z,14.80
2018-12-03T13:15:26.382Z,14.80
2018-12-03T13:18:02.129Z,14.80
2018-12-03T13:20:33.870Z,14.70
2018-12-03T13:23:03.148Z,14.70
2018-12-03T13:25:33.059Z,14.70
2018-12-03T13:28:02.343Z,14.70
2018-12-03T13:30:33.417Z,14.70
2018-12-03T13:33:02.736Z,14.50
2018-12-03T13:35:33.466Z,14.40
2018-12-03T13:38:04.385Z,14.50
2018-12-03T13:40:34.191Z,14.50
2018-12-03T13:43:03.487Z,14.60
2018-12-03T13:45:33.870Z,14.50
2018-12-03T13:48:03.703Z,14.40
2018-12-03T13:50:33.214Z,14.60
2018-12-03T13:53:04.579Z,14.60
2018-12-03T13:55:34.284Z,14.60
2018-12-03T13:58:04.182Z,14.50
2018-12-03T14:00:34.033Z,14.60
2018-12-03T14:03:13.934Z,14.50
2018-12-03T14:07:58.160Z,14.30
2018-12-03T14:12:43.319Z,14.30
2018-12-03T14:16:12.899Z,14.40
2018-12-03T14:18:47.017Z,14.20
2018-12-03T14:21:22.511Z,14.30
2018-12-03T14:23:54.942Z,14.20
2018-12-03T14:26:24.888Z,14.20
2018-12-03T14:28:55.072Z,14.20
2018-12-03T14:31:25.384Z,14.10
2018-12-03T14:33:54.688Z,14.20
2018-12-03T14:36:23.950Z,14.10
2018-12-03T14:38:53.329Z,13.90
2018-12-03T14:41:25.171Z,13.80
2018-12-03T14:43:54.737Z,13.80
2018-12-03T14:46:25.004Z,13.60
2018-12-03T14:48:54.389Z,13.50
2018-12-03T14:54:18.442Z,13.40
2018-12-03T14:56:48.797Z,13.30
2018-12-03T14:59:18.920Z,13.30
2018-12-03T15:01:48.648Z,13.20
2018-12-03T15:04:17.887Z,13.20
2018-12-03T15:06:47.640Z,13.20
2018-12-03T15:09:16.987Z,13.30
2018-12-03T15:11:48.646Z,13.20
2018-12-03T15:14:18.721Z,13.20
2018-12-03T15:16:52.131Z,13.20
2018-12-03T15:19:23.525Z,13.10
2018-12-03T15:22:03.279Z,13.10
2018-12-03T15:24:37.274Z,13.10
2018-12-03T15:27:06.811Z,13.10
2018-12-03T15:29:39.498Z,13.10
2018-12-03T15:32:11.177Z,13.10
2018-12-03T15:34:41.813Z,13.00
2018-12-03T15:37:11.467Z,13.10
2018-12-03T15:39:42.332Z,13.10
2018-12-03T15:42:11.952Z,13.10
2018-12-03T15:44:41.887Z,13.20
2018-12-03T15:47:11.925Z,13.20
2018-12-03T15:49:42.043Z,13.20
2018-12-03T15:52:11.671Z,13.30
2018-12-03T15:54:42.891Z,13.40
2018-12-03T15:57:18.894Z,13.40
2018-12-03T15:59:49.733Z,13.40
2018-12-03T16:02:21.075Z,13.30
2018-12-03T16:04:54.151Z,13.30
2018-12-03T16:07:24.266Z,13.20
2018-12-03T16:09:54.932Z,13.20
2018-12-03T16:12:34.309Z,13.10
2018-12-03T16:15:08.419Z,13.00
2018-12-03T16:17:42.255Z,13.00
2018-12-03T16:20:12.809Z,13.00
2018-12-03T16:22:44.311Z,12.90
2018-12-03T16:25:13.730Z,12.90
2018-12-03T16:27:44.422Z,12.90
2018-12-03T16:30:18.855Z,12.90
2018-12-03T16:32:48.247Z,12.90
2018-12-03T16:35:17.793Z,12.90
2018-12-03T16:37:47.460Z,12.80
2018-12-03T16:40:16.751Z,12.80
2018-12-03T16:42:45.978Z,12.80
2018-12-03T16:45:15.351Z,12.70
2018-12-03T16:47:44.748Z,12.80
2018-12-03T16:50:15.632Z,12.70
2018-12-03T16:52:46.515Z,12.60
2018-12-03T16:55:17.561Z,12.60
2018-12-03T16:57:49.405Z,12.60
2018-12-03T17:03:12.119Z,12.60
2018-12-03T17:05:42.401Z,12.60
2018-12-03T17:08:14.609Z,12.60
2018-12-03T17:10:45.966Z,12.50
2018-12-03T17:13:17.845Z,13.00
2018-12-03T17:15:48.180Z,12.60
2018-12-03T17:18:23.167Z,12.60
2018-12-03T17:21:07.303Z,12.60
2018-12-03T17:24:13.272Z,12.50
2018-12-03T17:26:43.240Z,12.50
2018-12-03T17:29:15.375Z,12.50
2018-12-03T17:31:44.863Z,12.50
2018-12-03T17:34:16.100Z,12.50
2018-12-03T17:36:45.475Z,12.50
2018-12-03T17:39:14.730Z,12.40
2018-12-03T17:41:44.357Z,12.40
2018-12-03T17:44:14.488Z,12.40
2018-12-03T17:46:45.230Z,12.40
2018-12-03T17:49:14.472Z,12.40
2018-12-03T17:51:46.913Z,12.40
2018-12-03T17:54:18.263Z,12.30
2018-12-03T17:56:47.535Z,12.30
2018-12-03T17:59:17.006Z,12.30
2018-12-03T18:01:46.339Z,12.30
2018-12-03T18:04:16.398Z,12.30
2018-12-03T18:06:47.577Z,12.40
2018-12-03T18:09:17.993Z,12.40
2018-12-03T18:11:49.119Z,12.40
2018-12-03T18:14:18.603Z,12.40
2018-12-03T18:16:48.827Z,12.50
2018-12-03T18:19:18.343Z,12.50
2018-12-03T18:21:47.758Z,12.50
2018-12-03T18:24:17.025Z,12.40
2018-12-03T18:26:46.690Z,12.40
2018-12-03T18:29:15.876Z,12.30
2018-12-03T18:31:46.256Z,12.20
2018-12-03T18:34:16.412Z,12.20
2018-12-03T18:36:46.532Z,12.20
2018-12-03T18:39:17.256Z,12.10
2018-12-03T18:41:47.376Z,12.00
2018-12-03T18:44:18.343Z,11.90
2018-12-03T18:46:48.386Z,12.00
2018-12-03T18:49:38.844Z,12.00
2018-12-03T18:52:09.676Z,12.00
2018-12-03T18:54:39.259Z,12.00
2018-12-03T18:57:08.533Z,11.90
2018-12-03T18:59:37.936Z,11.90
2018-12-03T19:02:12.722Z,11.80
2018-12-03T19:04:42.620Z,11.70
2018-12-03T19:07:11.899Z,11.70
2018-12-03T19:09:41.739Z,11.60
2018-12-03T19:12:11.412Z,11.60
2018-12-03T19:14:40.933Z,11.50
2018-12-03T19:17:12.080Z,11.50
2018-12-03T19:19:41.854Z,11.50
2018-12-03T19:22:11.594Z,11.50
2018-12-03T19:24:41.069Z,11.40
2018-12-03T19:27:10.815Z,11.40
2018-12-03T19:29:40.737Z,11.30
2018-12-03T19:32:13.358Z,11.30
2018-12-03T19:34:44.906Z,11.30
2018-12-03T19:37:16.181Z,11.40
2018-12-03T19:39:47.556Z,11.40
2018-12-03T19:42:17.900Z,11.40
2018-12-03T19:44:49.591Z,11.40
2018-12-03T19:47:21.280Z,11.40
2018-12-03T19:49:50.648Z,11.50
2018-12-03T19:52:21.133Z,11.50
2018-12-03T19:54:50.661Z,11.50
2018-12-03T19:57:23.652Z,11.40
2018-12-03T20:00:00.729Z,11.40
2018-12-03T20:02:27.294Z,11.40
2018-12-03T20:04:56.586Z,11.40
2018-12-03T20:07:25.866Z,11.40
2018-12-03T20:09:58.298Z,11.40
2018-12-03T20:12:33.296Z,11.40
2018-12-03T20:15:03.482Z,11.30
2018-12-03T20:17:37.104Z,11.30
2018-12-03T20:20:10.371Z,11.30
2018-12-03T20:22:59.915Z,11.30
2018-12-03T20:25:33.960Z,11.40
2018-12-03T20:28:08.619Z,11.40
2018-12-03T20:30:50.392Z,11.30
2018-12-03T20:33:23.660Z,11.30
2018-12-03T20:36:04.350Z,11.20
2018-12-03T20:38:39.663Z,11.20
2018-12-03T20:41:14.218Z,11.20
2018-12-03T20:43:43.850Z,11.10
2018-12-03T20:46:26.155Z,11.10
2018-12-03T20:50:43.446Z,11.10
2018-12-03T20:53:10.759Z,10.90
2018-12-03T20:55:42.847Z,10.90
2018-12-03T20:58:12.188Z,11.00
2018-12-03T21:00:43.416Z,10.90
2018-12-03T21:03:13.447Z,10.90
2018-12-03T21:05:42.808Z,10.90
2018-12-03T21:08:12.254Z,10.90
2018-12-03T21:10:42.522Z,11.00
2018-12-03T21:13:11.841Z,11.00
2018-12-03T21:15:41.317Z,11.00
2018-12-03T21:18:11.436Z,11.00
2018-12-03T21:20:46.681Z,11.00
2018-12-03T21:23:16.643Z,11.10
2018-12-03T21:25:45.952Z,11.10
2018-12-03T21:28:16.338Z,11.10
2018-12-03T21:30:45.883Z,11.10
2018-12-03T21:33:17.090Z,11.10
2018-12-03T21:35:46.757Z,11.10
2018-12-03T21:38:21.514Z,11.10
2018-12-03T21:40:53.308Z,11.00
2018-12-03T21:43:23.079Z,10.90
2018-12-03T21:45:52.574Z,10.80
2018-12-03T21:48:22.191Z,10.80
2018-12-03T21:50:52.968Z,10.80
2018-12-03T21:53:23.031Z,10.80
2018-12-03T21:55:54.688Z,10.70
2018-12-03T21:58:24.422Z,10.70
2018-12-03T22:00:56.922Z,10.70
2018-12-03T22:03:26.562Z,10.70
2018-12-03T22:06:00.818Z,10.60
2018-12-03T22:08:30.851Z,10.60
2018-12-03T22:11:01.257Z,10.70
2018-12-03T22:13:30.524Z,10.60
2018-12-03T22:15:59.761Z,10.70
2018-12-03T22:18:29.101Z,10.70
2018-12-03T22:20:58.728Z,10.70
2018-12-03T22:23:27.956Z,10.70
2018-12-03T22:25:58.134Z,10.60
2018-12-03T22:28:28.081Z,10.60
2018-12-03T22:30:58.856Z,10.60
2018-12-03T22:33:28.978Z,10.60
2018-12-03T22:35:58.681Z,10.70
2018-12-03T22:38:29.084Z,10.70
2018-12-03T22:40:59.242Z,10.80
2018-12-03T22:43:28.687Z,10.70
2018-12-03T22:45:58.228Z,10.70
2018-12-03T22:48:28.786Z,10.70
2018-12-03T22:50:58.176Z,10.70
2018-12-03T22:53:27.774Z,10.70
2018-12-03T22:55:59.434Z,10.70
2018-12-03T22:58:30.417Z,10.70
2018-12-03T23:01:08.855Z,10.70
2018-12-03T23:03:40.310Z,10.70
2018-12-03T23:06:11.294Z,10.60
2018-12-03T23:08:41.237Z,10.70
2018-12-03T23:11:19.896Z,10.60
2018-12-03T23:13:50.413Z,10.70
2018-12-03T23:16:26.798Z,10.60
2018-12-03T23:18:56.584Z,10.60
2018-12-03T23:21:26.083Z,10.50
2018-12-03T23:23:56.895Z,10.50
2018-12-03T23:26:27.172Z,10.50
2018-12-03T23:28:58.419Z,10.50
2018-12-03T23:31:27.872Z,10.50
2018-12-03T23:33:59.134Z,10.40
2018-12-03T23:36:28.555Z,10.40
2018-12-03T23:38:58.948Z,10.40
2018-12-03T23:41:28.911Z,10.40
2018-12-03T23:43:58.704Z,10.40
2018-12-03T23:46:28.064Z,10.40
2018-12-03T23:48:57.790Z,10.30
2018-12-03T23:54:20.873Z,10.20
2018-12-03T23:56:54.502Z,10.20
2018-12-03T23:59:27.943Z,10.20
